sensor_id;sensor_type;location;lat;lon;timestamp;P1;durP1;ratioP1;P2;durP2;ratioP2
7621;SDS011;3852;52.284;8.032;2022-09-20T00:01:21;8.60;;;2.00;;
7621;SDS011;3852;52.284;8.032;2022-09-20T00:03:54;11.47;;;2.30;;
7621;SDS011;3852;52.284;8.032;2022-09-20T00:06:26;4.53;;;2.10;;
7621;SDS011;3852;52.284;8.032;2022-09-20T00:08:55;7.00;;;2.53;;
7621;SDS011;3852;52.284;8.032;2022-09-20T00:11:23;6.67;;;2.13;;
7621;SDS011;3852;52.284;8.032;2022-09-20T00:13:55;5.00;;;2.27;;
7621;SDS011;3852;52.284;8.032;2022-09-20T00:16:23;8.27;;;2.60;;
7621;SDS011;3852;52.284;8.032;2022-09-20T00:18:54;5.83;;;2.10;;
7621;SDS011;3852;52.284;8.032;2022-09-20T00:21:23;6.00;;;2.07;;
7621;SDS011;3852;52.284;8.032;2022-09-20T00:23:51;5.13;;;1.93;;
7621;SDS011;3852;52.284;8.032;2022-09-20T00:26:17;9.47;;;2.23;;
7621;SDS011;3852;52.284;8.032;2022-09-20T00:28:43;8.13;;;2.30;;
7621;SDS011;3852;52.284;8.032;2022-09-20T00:31:11;5.30;;;2.17;;
7621;SDS011;3852;52.284;8.032;2022-09-20T00:33:38;8.70;;;2.87;;
7621;SDS011;3852;52.284;8.032;2022-09-20T00:36:36;6.63;;;2.67;;
7621;SDS011;3852;52.284;8.032;2022-09-20T00:39:02;6.27;;;2.10;;
7621;SDS011;3852;52.284;8.032;2022-09-20T00:41:29;6.20;;;2.20;;
7621;SDS011;3852;52.284;8.032;2022-09-20T00:43:56;5.53;;;2.13;;
7621;SDS011;3852;52.284;8.032;2022-09-20T00:49:22;11.97;;;2.80;;
7621;SDS011;3852;52.284;8.032;2022-09-20T00:51:56;7.97;;;2.20;;
7621;SDS011;3852;52.284;8.032;2022-09-20T00:54:25;10.80;;;2.80;;
7621;SDS011;3852;52.284;8.032;2022-09-20T00:56:55;7.70;;;2.23;;
7621;SDS011;3852;52.284;8.032;2022-09-20T00:59:23;6.83;;;2.10;;
7621;SDS011;3852;52.284;8.032;2022-09-20T01:04:49;10.20;;;2.33;;
7621;SDS011;3852;52.284;8.032;2022-09-20T01:07:16;9.20;;;2.00;;
7621;SDS011;3852;52.284;8.032;2022-09-20T01:09:46;6.30;;;1.80;;
7621;SDS011;3852;52.284;8.032;2022-09-20T01:12:13;4.97;;;2.07;;
7621;SDS011;3852;52.284;8.032;2022-09-20T01:14:44;8.70;;;2.07;;
7621;SDS011;3852;52.284;8.032;2022-09-20T01:17:14;9.27;;;2.37;;
7621;SDS011;3852;52.284;8.032;2022-09-20T01:28:31;8.87;;;2.10;;
7621;SDS011;3852;52.284;8.032;2022-09-20T01:33:51;4.17;;;2.13;;
7621;SDS011;3852;52.284;8.032;2022-09-20T01:41:39;3.53;;;1.60;;
7621;SDS011;3852;52.284;8.032;2022-09-20T01:46:57;7.30;;;2.33;;
7621;SDS011;3852;52.284;8.032;2022-09-20T01:58:40;4.50;;;1.70;;
7621;SDS011;3852;52.284;8.032;2022-09-20T02:01:42;3.47;;;1.30;;
7621;SDS011;3852;52.284;8.032;2022-09-20T02:04:31;5.07;;;1.47;;
7621;SDS011;3852;52.284;8.032;2022-09-20T02:10:26;3.47;;;1.70;;
7621;SDS011;3852;52.284;8.032;2022-09-20T02:19:20;4.67;;;1.90;;
7621;SDS011;3852;52.284;8.032;2022-09-20T02:25:11;6.30;;;1.63;;
7621;SDS011;3852;52.284;8.032;2022-09-20T02:33:51;5.30;;;1.83;;
7621;SDS011;3852;52.284;8.032;2022-09-20T02:39:32;3.87;;;1.90;;
7621;SDS011;3852;52.284;8.032;2022-09-20T02:42:14;8.47;;;1.90;;
7621;SDS011;3852;52.284;8.032;2022-09-20T02:44:54;7.67;;;2.43;;
7621;SDS011;3852;52.284;8.032;2022-09-20T02:47:36;7.07;;;2.23;;
7621;SDS011;3852;52.284;8.032;2022-09-20T02:58:51;7.47;;;2.30;;
7621;SDS011;3852;52.284;8.032;2022-09-20T03:01:43;10.40;;;2.60;;
7621;SDS011;3852;52.284;8.032;2022-09-20T03:07:25;5.00;;;2.20;;
7621;SDS011;3852;52.284;8.032;2022-09-20T03:44:09;7.37;;;2.50;;
7621;SDS011;3852;52.284;8.032;2022-09-20T03:46:54;6.73;;;2.43;;
7621;SDS011;3852;52.284;8.032;2022-09-20T03:57:49;5.53;;;2.50;;
7621;SDS011;3852;52.284;8.032;2022-09-20T04:03:52;10.23;;;2.77;;
7621;SDS011;3852;52.284;8.032;2022-09-20T04:06:45;8.50;;;2.70;;
7621;SDS011;3852;52.284;8.032;2022-09-20T04:09:35;10.83;;;2.47;;
7621;SDS011;3852;52.284;8.032;2022-09-20T04:12:25;7.27;;;2.50;;
7621;SDS011;3852;52.284;8.032;2022-09-20T04:18:26;7.10;;;2.60;;
7621;SDS011;3852;52.284;8.032;2022-09-20T04:21:10;8.80;;;2.73;;
7621;SDS011;3852;52.284;8.032;2022-09-20T04:26:46;7.00;;;2.70;;
7621;SDS011;3852;52.284;8.032;2022-09-20T04:32:03;5.73;;;2.60;;
7621;SDS011;3852;52.284;8.032;2022-09-20T04:34:47;9.10;;;3.10;;
7621;SDS011;3852;52.284;8.032;2022-09-20T04:37:43;6.10;;;2.90;;
7621;SDS011;3852;52.284;8.032;2022-09-20T04:40:13;5.70;;;2.60;;
7621;SDS011;3852;52.284;8.032;2022-09-20T04:45:58;4.90;;;3.00;;
7621;SDS011;3852;52.284;8.032;2022-09-20T04:48:48;5.07;;;3.07;;
7621;SDS011;3852;52.284;8.032;2022-09-20T05:00:24;6.17;;;3.00;;
7621;SDS011;3852;52.284;8.032;2022-09-20T05:14:51;8.20;;;3.67;;
7621;SDS011;3852;52.284;8.032;2022-09-20T05:17:40;7.23;;;2.97;;
7621;SDS011;3852;52.284;8.032;2022-09-20T05:27:04;8.03;;;3.00;;
7621;SDS011;3852;52.284;8.032;2022-09-20T05:30:02;11.97;;;3.93;;
7621;SDS011;3852;52.284;8.032;2022-09-20T05:32:59;9.13;;;3.17;;
7621;SDS011;3852;52.284;8.032;2022-09-20T05:41:35;10.30;;;3.23;;
7621;SDS011;3852;52.284;8.032;2022-09-20T05:50:04;8.07;;;2.90;;
7621;SDS011;3852;52.284;8.032;2022-09-20T05:53:23;7.80;;;3.40;;
7621;SDS011;3852;52.284;8.032;2022-09-20T05:56:18;4.80;;;3.40;;
7621;SDS011;3852;52.284;8.032;2022-09-20T06:10:11;5.80;;;3.37;;
7621;SDS011;3852;52.284;8.032;2022-09-20T06:18:30;7.13;;;3.20;;
7621;SDS011;3852;52.284;8.032;2022-09-20T06:24:15;10.43;;;3.37;;
7621;SDS011;3852;52.284;8.032;2022-09-20T06:27:13;7.00;;;3.60;;
7621;SDS011;3852;52.284;8.032;2022-09-20T06:30:03;5.43;;;3.57;;
7621;SDS011;3852;52.284;8.032;2022-09-20T06:32:51;7.20;;;3.43;;
7621;SDS011;3852;52.284;8.032;2022-09-20T06:41:23;9.03;;;3.50;;
7621;SDS011;3852;52.284;8.032;2022-09-20T06:43:57;7.63;;;3.57;;
7621;SDS011;3852;52.284;8.032;2022-09-20T06:46:29;9.03;;;3.30;;
7621;SDS011;3852;52.284;8.032;2022-09-20T06:48:57;11.43;;;3.50;;
7621;SDS011;3852;52.284;8.032;2022-09-20T06:51:24;6.13;;;3.07;;
7621;SDS011;3852;52.284;8.032;2022-09-20T06:53:53;5.87;;;3.40;;
7621;SDS011;3852;52.284;8.032;2022-09-20T06:56:25;12.23;;;3.53;;
7621;SDS011;3852;52.284;8.032;2022-09-20T06:58:54;9.03;;;3.33;;
7621;SDS011;3852;52.284;8.032;2022-09-20T07:01:20;4.50;;;3.00;;
7621;SDS011;3852;52.284;8.032;2022-09-20T07:03:47;10.57;;;3.20;;
7621;SDS011;3852;52.284;8.032;2022-09-20T07:06:12;8.40;;;3.30;;
7621;SDS011;3852;52.284;8.032;2022-09-20T07:08:43;10.70;;;3.83;;
7621;SDS011;3852;52.284;8.032;2022-09-20T07:11:11;6.97;;;3.47;;
7621;SDS011;3852;52.284;8.032;2022-09-20T07:13:41;8.37;;;3.40;;
7621;SDS011;3852;52.284;8.032;2022-09-20T07:16:12;10.93;;;3.40;;
7621;SDS011;3852;52.284;8.032;2022-09-20T07:18:39;8.67;;;3.10;;
7621;SDS011;3852;52.284;8.032;2022-09-20T07:21:13;9.03;;;3.40;;
7621;SDS011;3852;52.284;8.032;2022-09-20T07:23:41;7.70;;;2.80;;
7621;SDS011;3852;52.284;8.032;2022-09-20T07:26:15;6.83;;;3.23;;
7621;SDS011;3852;52.284;8.032;2022-09-20T07:28:48;14.87;;;11.33;;
7621;SDS011;3852;52.284;8.032;2022-09-20T07:31:15;17.20;;;11.27;;
7621;SDS011;3852;52.284;8.032;2022-09-20T07:33:45;9.20;;;4.93;;
7621;SDS011;3852;52.284;8.032;2022-09-20T07:36:13;14.97;;;5.50;;
7621;SDS011;3852;52.284;8.032;2022-09-20T07:38:40;9.23;;;4.53;;
7621;SDS011;3852;52.284;8.032;2022-09-20T07:41:08;6.03;;;3.27;;
7621;SDS011;3852;52.284;8.032;2022-09-20T07:43:34;10.30;;;3.30;;
7621;SDS011;3852;52.284;8.032;2022-09-20T07:46:00;7.70;;;2.93;;
7621;SDS011;3852;52.284;8.032;2022-09-20T07:48:28;6.43;;;2.60;;
7621;SDS011;3852;52.284;8.032;2022-09-20T07:51:06;8.17;;;3.03;;
7621;SDS011;3852;52.284;8.032;2022-09-20T07:53:35;8.63;;;2.90;;
7621;SDS011;3852;52.284;8.032;2022-09-20T07:56:03;9.40;;;3.07;;
7621;SDS011;3852;52.284;8.032;2022-09-20T07:58:33;7.73;;;3.10;;
7621;SDS011;3852;52.284;8.032;2022-09-20T08:01:01;7.30;;;2.73;;
7621;SDS011;3852;52.284;8.032;2022-09-20T08:03:30;6.77;;;2.53;;
7621;SDS011;3852;52.284;8.032;2022-09-20T08:06:03;9.53;;;2.80;;
7621;SDS011;3852;52.284;8.032;2022-09-20T08:08:32;5.53;;;2.97;;
7621;SDS011;3852;52.284;8.032;2022-09-20T08:11:07;6.70;;;2.77;;
7621;SDS011;3852;52.284;8.032;2022-09-20T08:13:46;7.33;;;2.77;;
7621;SDS011;3852;52.284;8.032;2022-09-20T08:16:14;6.17;;;2.67;;
7621;SDS011;3852;52.284;8.032;2022-09-20T08:18:45;11.37;;;2.90;;
7621;SDS011;3852;52.284;8.032;2022-09-20T08:21:15;7.27;;;2.43;;
7621;SDS011;3852;52.284;8.032;2022-09-20T08:23:43;10.33;;;2.77;;
7621;SDS011;3852;52.284;8.032;2022-09-20T08:26:11;9.53;;;2.70;;
7621;SDS011;3852;52.284;8.032;2022-09-20T08:28:43;9.53;;;2.53;;
7621;SDS011;3852;52.284;8.032;2022-09-20T08:31:15;9.07;;;2.97;;
7621;SDS011;3852;52.284;8.032;2022-09-20T08:33:46;26.37;;;20.03;;
7621;SDS011;3852;52.284;8.032;2022-09-20T08:36:21;7.53;;;4.67;;
7621;SDS011;3852;52.284;8.032;2022-09-20T08:38:51;4.80;;;2.90;;
7621;SDS011;3852;52.284;8.032;2022-09-20T08:41:18;8.03;;;2.77;;
7621;SDS011;3852;52.284;8.032;2022-09-20T08:46:18;5.20;;;2.13;;
7621;SDS011;3852;52.284;8.032;2022-09-20T08:48:51;8.00;;;2.63;;
7621;SDS011;3852;52.284;8.032;2022-09-20T08:51:17;8.27;;;2.17;;
7621;SDS011;3852;52.284;8.032;2022-09-20T08:53:47;4.90;;;2.40;;
7621;SDS011;3852;52.284;8.032;2022-09-20T08:56:16;6.67;;;2.10;;
7621;SDS011;3852;52.284;8.032;2022-09-20T08:58:43;6.03;;;1.83;;
7621;SDS011;3852;52.284;8.032;2022-09-20T09:01:12;6.57;;;1.80;;
7621;SDS011;3852;52.284;8.032;2022-09-20T09:03:52;5.77;;;1.83;;
7621;SDS011;3852;52.284;8.032;2022-09-20T09:06:46;7.50;;;2.10;;
7621;SDS011;3852;52.284;8.032;2022-09-20T09:09:16;4.03;;;1.50;;
7621;SDS011;3852;52.284;8.032;2022-09-20T09:11:49;7.93;;;1.87;;
7621;SDS011;3852;52.284;8.032;2022-09-20T09:14:22;2.47;;;1.70;;
7621;SDS011;3852;52.284;8.032;2022-09-20T09:17:11;3.07;;;1.00;;
7621;SDS011;3852;52.284;8.032;2022-09-20T09:22:41;1.93;;;1.30;;
7621;SDS011;3852;52.284;8.032;2022-09-20T09:30:41;30.10;;;19.37;;
7621;SDS011;3852;52.284;8.032;2022-09-20T09:35:52;5.73;;;2.17;;
7621;SDS011;3852;52.284;8.032;2022-09-20T09:38:41;6.07;;;2.00;;
7621;SDS011;3852;52.284;8.032;2022-09-20T09:41:20;9.10;;;2.50;;
7621;SDS011;3852;52.284;8.032;2022-09-20T09:44:02;8.63;;;2.20;;
7621;SDS011;3852;52.284;8.032;2022-09-20T09:46:35;5.37;;;2.73;;
7621;SDS011;3852;52.284;8.032;2022-09-20T09:54:38;7.47;;;2.53;;
7621;SDS011;3852;52.284;8.032;2022-09-20T10:17:50;7.63;;;2.40;;
7621;SDS011;3852;52.284;8.032;2022-09-20T10:20:09;5.47;;;2.37;;
7621;SDS011;3852;52.284;8.032;2022-09-20T10:26:05;6.67;;;2.13;;
7621;SDS011;3852;52.284;8.032;2022-09-20T10:31:40;5.40;;;1.90;;
7621;SDS011;3852;52.284;8.032;2022-09-20T10:34:46;2.70;;;1.70;;
7621;SDS011;3852;52.284;8.032;2022-09-20T10:44:44;5.30;;;1.87;;
7621;SDS011;3852;52.284;8.032;2022-09-20T10:47:37;4.37;;;2.60;;
7621;SDS011;3852;52.284;8.032;2022-09-20T10:50:31;11.60;;;5.07;;
7621;SDS011;3852;52.284;8.032;2022-09-20T10:53:11;8.43;;;2.87;;
7621;SDS011;3852;52.284;8.032;2022-09-20T11:10:41;4.17;;;2.50;;
7621;SDS011;3852;52.284;8.032;2022-09-20T11:13:19;3.63;;;2.47;;
7621;SDS011;3852;52.284;8.032;2022-09-20T11:21:39;5.43;;;2.43;;
7621;SDS011;3852;52.284;8.032;2022-09-20T11:28:39;6.27;;;2.67;;
7621;SDS011;3852;52.284;8.032;2022-09-20T11:31:09;6.10;;;2.90;;
7621;SDS011;3852;52.284;8.032;2022-09-20T11:33:47;4.47;;;2.67;;
7621;SDS011;3852;52.284;8.032;2022-09-20T11:36:34;7.50;;;2.53;;
7621;SDS011;3852;52.284;8.032;2022-09-20T11:39:14;4.53;;;2.50;;
7621;SDS011;3852;52.284;8.032;2022-09-20T11:42:29;6.93;;;2.90;;
7621;SDS011;3852;52.284;8.032;2022-09-20T11:44:59;3.33;;;2.07;;
7621;SDS011;3852;52.284;8.032;2022-09-20T11:47:27;5.47;;;2.00;;
7621;SDS011;3852;52.284;8.032;2022-09-20T11:55:46;4.67;;;2.27;;
7621;SDS011;3852;52.284;8.032;2022-09-20T11:58:26;4.13;;;1.67;;
7621;SDS011;3852;52.284;8.032;2022-09-20T12:00:54;4.17;;;1.60;;
7621;SDS011;3852;52.284;8.032;2022-09-20T12:03:24;6.03;;;1.70;;
7621;SDS011;3852;52.284;8.032;2022-09-20T12:06:02;4.33;;;1.60;;
7621;SDS011;3852;52.284;8.032;2022-09-20T12:08:31;3.27;;;1.43;;
7621;SDS011;3852;52.284;8.032;2022-09-20T12:11:04;3.90;;;1.60;;
7621;SDS011;3852;52.284;8.032;2022-09-20T12:13:35;5.83;;;1.60;;
7621;SDS011;3852;52.284;8.032;2022-09-20T12:16:12;5.90;;;1.70;;
7621;SDS011;3852;52.284;8.032;2022-09-20T12:21:18;2.73;;;1.30;;
7621;SDS011;3852;52.284;8.032;2022-09-20T12:23:46;1.90;;;1.30;;
7621;SDS011;3852;52.284;8.032;2022-09-20T12:31:54;2.10;;;1.13;;
7621;SDS011;3852;52.284;8.032;2022-09-20T12:41:56;1.70;;;1.10;;
7621;SDS011;3852;52.284;8.032;2022-09-20T12:49:34;1.77;;;1.10;;
7621;SDS011;3852;52.284;8.032;2022-09-20T12:58:15;1.80;;;1.00;;
7621;SDS011;3852;52.284;8.032;2022-09-20T13:03:42;2.17;;;1.10;;
7621;SDS011;3852;52.284;8.032;2022-09-20T13:14:50;1.40;;;0.87;;
7621;SDS011;3852;52.284;8.032;2022-09-20T13:17:41;0.90;;;0.90;;
7621;SDS011;3852;52.284;8.032;2022-09-20T13:19:53;1.23;;;0.80;;
7621;SDS011;3852;52.284;8.032;2022-09-20T13:22:27;1.10;;;0.93;;
7621;SDS011;3852;52.284;8.032;2022-09-20T13:25:00;0.83;;;0.83;;
7621;SDS011;3852;52.284;8.032;2022-09-20T13:27:34;1.20;;;1.00;;
7621;SDS011;3852;52.284;8.032;2022-09-20T13:32:44;2.63;;;1.67;;
7621;SDS011;3852;52.284;8.032;2022-09-20T13:37:52;3.53;;;1.13;;
7621;SDS011;3852;52.284;8.032;2022-09-20T13:46:12;3.60;;;1.20;;
7621;SDS011;3852;52.284;8.032;2022-09-20T13:49:18;1.67;;;0.90;;
7621;SDS011;3852;52.284;8.032;2022-09-20T13:51:48;2.33;;;1.00;;
7621;SDS011;3852;52.284;8.032;2022-09-20T13:54:19;1.30;;;0.90;;
7621;SDS011;3852;52.284;8.032;2022-09-20T13:56:52;1.27;;;1.00;;
7621;SDS011;3852;52.284;8.032;2022-09-20T13:59:22;1.80;;;1.03;;
7621;SDS011;3852;52.284;8.032;2022-09-20T14:01:52;4.60;;;1.00;;
7621;SDS011;3852;52.284;8.032;2022-09-20T14:04:20;1.50;;;1.03;;
7621;SDS011;3852;52.284;8.032;2022-09-20T14:06:50;1.40;;;1.20;;
7621;SDS011;3852;52.284;8.032;2022-09-20T14:09:19;1.87;;;1.20;;
7621;SDS011;3852;52.284;8.032;2022-09-20T14:11:59;2.20;;;1.10;;
7621;SDS011;3852;52.284;8.032;2022-09-20T14:14:31;3.97;;;0.90;;
7621;SDS011;3852;52.284;8.032;2022-09-20T14:16:59;3.03;;;1.73;;
7621;SDS011;3852;52.284;8.032;2022-09-20T14:19:30;3.93;;;1.70;;
7621;SDS011;3852;52.284;8.032;2022-09-20T14:22:04;1.10;;;1.00;;
7621;SDS011;3852;52.284;8.032;2022-09-20T14:24:35;3.30;;;1.10;;
7621;SDS011;3852;52.284;8.032;2022-09-20T14:27:12;3.50;;;2.40;;
7621;SDS011;3852;52.284;8.032;2022-09-20T14:29:47;3.37;;;1.40;;
7621;SDS011;3852;52.284;8.032;2022-09-20T14:37:45;4.30;;;2.07;;
7621;SDS011;3852;52.284;8.032;2022-09-20T14:45:29;1.40;;;1.00;;
7621;SDS011;3852;52.284;8.032;2022-09-20T14:50:34;2.63;;;0.80;;
7621;SDS011;3852;52.284;8.032;2022-09-20T14:55:39;1.57;;;0.70;;
7621;SDS011;3852;52.284;8.032;2022-09-20T14:58:23;1.37;;;0.90;;
7621;SDS011;3852;52.284;8.032;2022-09-20T15:03:51;1.50;;;1.40;;
7621;SDS011;3852;52.284;8.032;2022-09-20T15:06:17;2.00;;;1.20;;
7621;SDS011;3852;52.284;8.032;2022-09-20T15:08:46;0.80;;;0.80;;
7621;SDS011;3852;52.284;8.032;2022-09-20T15:11:15;1.80;;;0.70;;
7621;SDS011;3852;52.284;8.032;2022-09-20T15:13:42;0.93;;;0.70;;
7621;SDS011;3852;52.284;8.032;2022-09-20T15:16:09;1.07;;;0.70;;
7621;SDS011;3852;52.284;8.032;2022-09-20T15:18:44;0.70;;;0.70;;
7621;SDS011;3852;52.284;8.032;2022-09-20T15:21:11;0.80;;;0.80;;
7621;SDS011;3852;52.284;8.032;2022-09-20T15:23:37;0.80;;;0.70;;
7621;SDS011;3852;52.284;8.032;2022-09-20T15:26:04;1.67;;;0.90;;
7621;SDS011;3852;52.284;8.032;2022-09-20T15:28:32;2.13;;;1.00;;
7621;SDS011;3852;52.284;8.032;2022-09-20T15:30:58;0.80;;;0.80;;
7621;SDS011;3852;52.284;8.032;2022-09-20T15:33:24;1.23;;;0.80;;
7621;SDS011;3852;52.284;8.032;2022-09-20T15:35:55;1.37;;;0.90;;
7621;SDS011;3852;52.284;8.032;2022-09-20T15:38:20;1.50;;;0.90;;
7621;SDS011;3852;52.284;8.032;2022-09-20T15:40:50;1.07;;;0.80;;
7621;SDS011;3852;52.284;8.032;2022-09-20T15:43:18;2.60;;;0.90;;
7621;SDS011;3852;52.284;8.032;2022-09-20T15:45:54;3.13;;;1.03;;
7621;SDS011;3852;52.284;8.032;2022-09-20T15:48:25;1.37;;;0.90;;
7621;SDS011;3852;52.284;8.032;2022-09-20T15:53:27;1.87;;;0.87;;
7621;SDS011;3852;52.284;8.032;2022-09-20T15:56:01;3.63;;;1.37;;
7621;SDS011;3852;52.284;8.032;2022-09-20T15:58:49;1.10;;;1.00;;
7621;SDS011;3852;52.284;8.032;2022-09-20T16:01:23;2.50;;;1.10;;
7621;SDS011;3852;52.284;8.032;2022-09-20T16:03:58;1.10;;;0.90;;
7621;SDS011;3852;52.284;8.032;2022-09-20T16:06:24;2.23;;;0.90;;
7621;SDS011;3852;52.284;8.032;2022-09-20T16:08:50;1.47;;;0.70;;
7621;SDS011;3852;52.284;8.032;2022-09-20T16:11:17;1.73;;;0.80;;
7621;SDS011;3852;52.284;8.032;2022-09-20T16:13:52;1.33;;;0.80;;
7621;SDS011;3852;52.284;8.032;2022-09-20T16:16:19;0.90;;;0.70;;
7621;SDS011;3852;52.284;8.032;2022-09-20T16:18:45;1.20;;;1.10;;
7621;SDS011;3852;52.284;8.032;2022-09-20T16:21:29;0.80;;;0.80;;
7621;SDS011;3852;52.284;8.032;2022-09-20T16:23:56;1.00;;;0.90;;
7621;SDS011;3852;52.284;8.032;2022-09-20T16:26:23;0.90;;;0.90;;
7621;SDS011;3852;52.284;8.032;2022-09-20T16:28:51;1.20;;;1.10;;
7621;SDS011;3852;52.284;8.032;2022-09-20T16:31:40;1.73;;;0.90;;
7621;SDS011;3852;52.284;8.032;2022-09-20T16:36:50;0.80;;;0.80;;
7621;SDS011;3852;52.284;8.032;2022-09-20T16:39:20;0.93;;;0.90;;
7621;SDS011;3852;52.284;8.032;2022-09-20T16:41:51;1.37;;;1.10;;
7621;SDS011;3852;52.284;8.032;2022-09-20T16:44:28;1.20;;;1.10;;
7621;SDS011;3852;52.284;8.032;2022-09-20T16:46:58;1.67;;;1.10;;
7621;SDS011;3852;52.284;8.032;2022-09-20T16:49:25;2.70;;;1.17;;
7621;SDS011;3852;52.284;8.032;2022-09-20T16:51:51;1.20;;;1.10;;
7621;SDS011;3852;52.284;8.032;2022-09-20T16:54:17;2.20;;;1.17;;
7621;SDS011;3852;52.284;8.032;2022-09-20T16:56:47;1.70;;;1.00;;
7621;SDS011;3852;52.284;8.032;2022-09-20T16:59:15;2.13;;;1.20;;
7621;SDS011;3852;52.284;8.032;2022-09-20T17:01:45;1.33;;;1.23;;
7621;SDS011;3852;52.284;8.032;2022-09-20T17:04:12;1.70;;;1.33;;
7621;SDS011;3852;52.284;8.032;2022-09-20T17:06:41;1.87;;;1.37;;
7621;SDS011;3852;52.284;8.032;2022-09-20T17:09:08;2.37;;;1.60;;
7621;SDS011;3852;52.284;8.032;2022-09-20T17:11:35;3.73;;;1.53;;
7621;SDS011;3852;52.284;8.032;2022-09-20T17:14:04;2.83;;;1.60;;
7621;SDS011;3852;52.284;8.032;2022-09-20T17:16:35;4.53;;;1.90;;
7621;SDS011;3852;52.284;8.032;2022-09-20T17:19:04;4.00;;;2.30;;
7621;SDS011;3852;52.284;8.032;2022-09-20T17:21:36;2.70;;;1.90;;
7621;SDS011;3852;52.284;8.032;2022-09-20T17:24:08;3.07;;;2.00;;
7621;SDS011;3852;52.284;8.032;2022-09-20T17:26:36;2.37;;;1.70;;
7621;SDS011;3852;52.284;8.032;2022-09-20T17:29:06;2.13;;;1.43;;
7621;SDS011;3852;52.284;8.032;2022-09-20T17:31:35;3.00;;;1.60;;
7621;SDS011;3852;52.284;8.032;2022-09-20T17:34:06;1.60;;;1.50;;
7621;SDS011;3852;52.284;8.032;2022-09-20T17:36:39;1.47;;;1.37;;
7621;SDS011;3852;52.284;8.032;2022-09-20T17:39:07;2.50;;;1.43;;
7621;SDS011;3852;52.284;8.032;2022-09-20T17:41:36;2.83;;;1.80;;
7621;SDS011;3852;52.284;8.032;2022-09-20T17:44:07;2.70;;;1.50;;
7621;SDS011;3852;52.284;8.032;2022-09-20T17:46:38;2.27;;;1.60;;
7621;SDS011;3852;52.284;8.032;2022-09-20T17:49:06;4.50;;;1.90;;
7621;SDS011;3852;52.284;8.032;2022-09-20T17:51:35;2.20;;;1.87;;
7621;SDS011;3852;52.284;8.032;2022-09-20T17:54:06;1.93;;;1.60;;
7621;SDS011;3852;52.284;8.032;2022-09-20T17:56:36;3.17;;;1.90;;
7621;SDS011;3852;52.284;8.032;2022-09-20T17:59:03;3.63;;;1.90;;
7621;SDS011;3852;52.284;8.032;2022-09-20T18:01:30;2.50;;;2.30;;
7621;SDS011;3852;52.284;8.032;2022-09-20T18:03:59;3.93;;;2.47;;
7621;SDS011;3852;52.284;8.032;2022-09-20T18:09:09;4.27;;;2.70;;
7621;SDS011;3852;52.284;8.032;2022-09-20T18:11:40;2.60;;;2.40;;
7621;SDS011;3852;52.284;8.032;2022-09-20T18:14:17;2.70;;;2.40;;
7621;SDS011;3852;52.284;8.032;2022-09-20T18:16:46;4.03;;;2.30;;
7621;SDS011;3852;52.284;8.032;2022-09-20T18:19:14;4.90;;;2.50;;
7621;SDS011;3852;52.284;8.032;2022-09-20T18:21:40;5.17;;;3.50;;
7621;SDS011;3852;52.284;8.032;2022-09-20T18:24:07;3.60;;;3.30;;
7621;SDS011;3852;52.284;8.032;2022-09-20T18:26:35;3.93;;;3.53;;
7621;SDS011;3852;52.284;8.032;2022-09-20T18:29:08;3.83;;;3.40;;
7621;SDS011;3852;52.284;8.032;2022-09-20T18:31:37;3.50;;;3.20;;
7621;SDS011;3852;52.284;8.032;2022-09-20T18:34:14;5.33;;;4.00;;
7621;SDS011;3852;52.284;8.032;2022-09-20T18:36:52;5.73;;;3.97;;
7621;SDS011;3852;52.284;8.032;2022-09-20T18:39:23;6.70;;;4.73;;
7621;SDS011;3852;52.284;8.032;2022-09-20T18:41:51;7.17;;;5.97;;
7621;SDS011;3852;52.284;8.032;2022-09-20T18:44:18;7.07;;;6.37;;
7621;SDS011;3852;52.284;8.032;2022-09-20T18:46:45;7.17;;;5.60;;
7621;SDS011;3852;52.284;8.032;2022-09-20T18:49:12;6.00;;;5.10;;
7621;SDS011;3852;52.284;8.032;2022-09-20T18:51:40;5.40;;;4.10;;
7621;SDS011;3852;52.284;8.032;2022-09-20T18:54:08;4.77;;;4.27;;
7621;SDS011;3852;52.284;8.032;2022-09-20T18:56:36;4.10;;;3.73;;
7621;SDS011;3852;52.284;8.032;2022-09-20T19:07:38;6.70;;;3.33;;
7621;SDS011;3852;52.284;8.032;2022-09-20T19:16:10;3.10;;;2.77;;
7621;SDS011;3852;52.284;8.032;2022-09-20T19:21:55;4.53;;;3.30;;
7621;SDS011;3852;52.284;8.032;2022-09-20T19:24:27;2.80;;;2.57;;
7621;SDS011;3852;52.284;8.032;2022-09-20T19:27:07;3.47;;;3.10;;
7621;SDS011;3852;52.284;8.032;2022-09-20T19:29:36;4.17;;;3.10;;
7621;SDS011;3852;52.284;8.032;2022-09-20T19:32:03;3.60;;;2.93;;
7621;SDS011;3852;52.284;8.032;2022-09-20T19:34:30;5.07;;;3.73;;
7621;SDS011;3852;52.284;8.032;2022-09-20T19:40:13;6.33;;;4.27;;
7621;SDS011;3852;52.284;8.032;2022-09-20T19:48:36;4.27;;;3.20;;
7621;SDS011;3852;52.284;8.032;2022-09-20T19:51:08;4.20;;;3.40;;
7621;SDS011;3852;52.284;8.032;2022-09-20T19:53:36;3.50;;;3.17;;
7621;SDS011;3852;52.284;8.032;2022-09-20T19:56:09;4.10;;;2.80;;
7621;SDS011;3852;52.284;8.032;2022-09-20T19:58:50;3.00;;;2.70;;
7621;SDS011;3852;52.284;8.032;2022-09-20T20:01:20;4.97;;;2.53;;
7621;SDS011;3852;52.284;8.032;2022-09-20T20:03:48;2.30;;;2.10;;
7621;SDS011;3852;52.284;8.032;2022-09-20T20:09:07;2.50;;;2.30;;
7621;SDS011;3852;52.284;8.032;2022-09-20T20:12:13;3.23;;;2.20;;
7621;SDS011;3852;52.284;8.032;2022-09-20T20:20:38;4.63;;;3.20;;
7621;SDS011;3852;52.284;8.032;2022-09-20T20:23:36;3.90;;;2.90;;
7621;SDS011;3852;52.284;8.032;2022-09-20T20:26:23;5.20;;;3.43;;
7621;SDS011;3852;52.284;8.032;2022-09-20T20:28:52;5.07;;;4.17;;
7621;SDS011;3852;52.284;8.032;2022-09-20T20:31:18;5.77;;;4.70;;
7621;SDS011;3852;52.284;8.032;2022-09-20T20:33:45;5.80;;;4.20;;
7621;SDS011;3852;52.284;8.032;2022-09-20T20:36:10;4.90;;;3.83;;
7621;SDS011;3852;52.284;8.032;2022-09-20T20:38:40;4.67;;;4.00;;
7621;SDS011;3852;52.284;8.032;2022-09-20T20:41:14;5.70;;;4.80;;
7621;SDS011;3852;52.284;8.032;2022-09-20T20:43:42;5.93;;;5.13;;
7621;SDS011;3852;52.284;8.032;2022-09-20T20:46:15;7.13;;;5.83;;
7621;SDS011;3852;52.284;8.032;2022-09-20T20:48:45;7.70;;;5.70;;
7621;SDS011;3852;52.284;8.032;2022-09-20T20:51:18;6.23;;;4.90;;
7621;SDS011;3852;52.284;8.032;2022-09-20T20:53:47;7.30;;;5.73;;
7621;SDS011;3852;52.284;8.032;2022-09-20T20:56:19;6.57;;;5.20;;
7621;SDS011;3852;52.284;8.032;2022-09-20T20:58:50;5.20;;;4.70;;
7621;SDS011;3852;52.284;8.032;2022-09-20T21:01:23;5.47;;;4.80;;
7621;SDS011;3852;52.284;8.032;2022-09-20T21:03:53;5.40;;;4.80;;
7621;SDS011;3852;52.284;8.032;2022-09-20T21:06:20;6.43;;;5.33;;
7621;SDS011;3852;52.284;8.032;2022-09-20T21:08:49;10.10;;;6.77;;
7621;SDS011;3852;52.284;8.032;2022-09-20T21:11:16;12.63;;;7.77;;
7621;SDS011;3852;52.284;8.032;2022-09-20T21:13:47;13.60;;;7.67;;
7621;SDS011;3852;52.284;8.032;2022-09-20T21:16:17;12.70;;;7.67;;
7621;SDS011;3852;52.284;8.032;2022-09-20T21:18:46;18.77;;;9.50;;
7621;SDS011;3852;52.284;8.032;2022-09-20T21:21:14;13.63;;;8.63;;
7621;SDS011;3852;52.284;8.032;2022-09-20T21:23:45;17.17;;;9.27;;
7621;SDS011;3852;52.284;8.032;2022-09-20T21:26:17;16.10;;;8.37;;
7621;SDS011;3852;52.284;8.032;2022-09-20T21:28:45;17.53;;;9.20;;
7621;SDS011;3852;52.284;8.032;2022-09-20T21:31:19;15.37;;;8.77;;
7621;SDS011;3852;52.284;8.032;2022-09-20T21:33:46;15.37;;;8.90;;
7621;SDS011;3852;52.284;8.032;2022-09-20T21:36:13;15.20;;;9.10;;
7621;SDS011;3852;52.284;8.032;2022-09-20T21:38:41;15.53;;;8.60;;
7621;SDS011;3852;52.284;8.032;2022-09-20T21:43:44;13.80;;;7.87;;
7621;SDS011;3852;52.284;8.032;2022-09-20T21:46:20;10.20;;;6.97;;
7621;SDS011;3852;52.284;8.032;2022-09-20T21:49:01;10.87;;;7.00;;
7621;SDS011;3852;52.284;8.032;2022-09-20T21:51:29;8.53;;;6.87;;
7621;SDS011;3852;52.284;8.032;2022-09-20T21:53:57;10.37;;;6.10;;
7621;SDS011;3852;52.284;8.032;2022-09-20T21:56:25;7.80;;;5.23;;
7621;SDS011;3852;52.284;8.032;2022-09-20T21:58:55;10.83;;;6.50;;
7621;SDS011;3852;52.284;8.032;2022-09-20T22:01:25;7.40;;;6.20;;
7621;SDS011;3852;52.284;8.032;2022-09-20T22:03:53;7.77;;;5.90;;
7621;SDS011;3852;52.284;8.032;2022-09-20T22:06:23;7.20;;;5.73;;
7621;SDS011;3852;52.284;8.032;2022-09-20T22:08:53;6.17;;;5.33;;
7621;SDS011;3852;52.284;8.032;2022-09-20T22:11:31;9.07;;;5.90;;
7621;SDS011;3852;52.284;8.032;2022-09-20T22:14:02;6.73;;;5.37;;
7621;SDS011;3852;52.284;8.032;2022-09-20T22:16:29;6.27;;;5.67;;
7621;SDS011;3852;52.284;8.032;2022-09-20T22:18:59;8.00;;;6.40;;